sensor_id;sensor_type;location;lat;lon;timestamp;temperature;humidity
66522;SHT31;53349;53.538;8.584;2024-03-07T00:00:35;3.30;80.58
66522;SHT31;53349;53.538;8.584;2024-03-07T00:03:01;3.24;80.45
66522;SHT31;53349;53.538;8.584;2024-03-07T00:05:26;3.27;80.73
66522;SHT31;53349;53.538;8.584;2024-03-07T00:07:52;3.26;80.62
66522;SHT31;53349;53.538;8.584;2024-03-07T00:10:18;3.30;80.75
66522;SHT31;53349;53.538;8.584;2024-03-07T00:12:44;3.22;80.96
66522;SHT31;53349;53.538;8.584;2024-03-07T00:15:11;3.27;80.92
66522;SHT31;53349;53.538;8.584;2024-03-07T00:17:37;3.31;80.61
66522;SHT31;53349;53.538;8.584;2024-03-07T00:20:03;3.22;80.94
66522;SHT31;53349;53.538;8.584;2024-03-07T00:22:28;3.20;81.05
66522;SHT31;53349;53.538;8.584;2024-03-07T00:24:54;3.13;81.25
66522;SHT31;53349;53.538;8.584;2024-03-07T00:27:19;3.19;81.45
66522;SHT31;53349;53.538;8.584;2024-03-07T00:29:44;3.15;81.28
66522;SHT31;53349;53.538;8.584;2024-03-07T00:32:10;3.19;81.30
66522;SHT31;53349;53.538;8.584;2024-03-07T00:34:35;3.12;81.73
66522;SHT31;53349;53.538;8.584;2024-03-07T00:37:00;3.02;82.03
66522;SHT31;53349;53.538;8.584;2024-03-07T00:39:26;3.02;82.17
66522;SHT31;53349;53.538;8.584;2024-03-07T00:41:51;2.99;82.70
66522;SHT31;53349;53.538;8.584;2024-03-07T00:44:17;2.95;82.96
66522;SHT31;53349;53.538;8.584;2024-03-07T00:46:42;2.91;83.81
66522;SHT31;53349;53.538;8.584;2024-03-07T00:49:08;2.82;84.03
66522;SHT31;53349;53.538;8.584;2024-03-07T00:51:33;2.84;84.11
66522;SHT31;53349;53.538;8.584;2024-03-07T00:53:59;2.75;84.38
66522;SHT31;53349;53.538;8.584;2024-03-07T00:56:24;2.82;84.55
66522;SHT31;53349;53.538;8.584;2024-03-07T00:58:50;2.82;84.67
66522;SHT31;53349;53.538;8.584;2024-03-07T01:01:17;2.77;84.87
66522;SHT31;53349;53.538;8.584;2024-03-07T01:03:42;2.86;84.62
66522;SHT31;53349;53.538;8.584;2024-03-07T01:06:08;2.81;85.03
66522;SHT31;53349;53.538;8.584;2024-03-07T01:08:33;2.89;84.70
66522;SHT31;53349;53.538;8.584;2024-03-07T01:10:58;2.82;85.01
66522;SHT31;53349;53.538;8.584;2024-03-07T01:13:24;2.89;84.84
66522;SHT31;53349;53.538;8.584;2024-03-07T01:15:49;2.91;84.86
66522;SHT31;53349;53.538;8.584;2024-03-07T01:18:15;2.88;85.12
66522;SHT31;53349;53.538;8.584;2024-03-07T01:20:41;2.89;85.23
66522;SHT31;53349;53.538;8.584;2024-03-07T01:23:06;2.89;85.33
66522;SHT31;53349;53.538;8.584;2024-03-07T01:25:31;2.88;85.58
66522;SHT31;53349;53.538;8.584;2024-03-07T01:27:57;2.88;85.51
66522;SHT31;53349;53.538;8.584;2024-03-07T01:30:22;2.88;85.77
66522;SHT31;53349;53.538;8.584;2024-03-07T01:32:47;2.86;85.62
66522;SHT31;53349;53.538;8.584;2024-03-07T01:35:13;2.86;85.90
66522;SHT31;53349;53.538;8.584;2024-03-07T01:37:38;2.75;86.34
66522;SHT31;53349;53.538;8.584;2024-03-07T01:40:04;2.86;86.27
66522;SHT31;53349;53.538;8.584;2024-03-07T01:42:29;2.86;86.32
66522;SHT31;53349;53.538;8.584;2024-03-07T01:44:54;2.98;85.92
66522;SHT31;53349;53.538;8.584;2024-03-07T01:47:20;2.89;86.29
66522;SHT31;53349;53.538;8.584;2024-03-07T01:49:45;3.03;86.01
66522;SHT31;53349;53.538;8.584;2024-03-07T01:52:11;2.99;86.33
66522;SHT31;53349;53.538;8.584;2024-03-07T01:54:37;3.00;86.15
66522;SHT31;53349;53.538;8.584;2024-03-07T01:57:04;2.89;86.62
66522;SHT31;53349;53.538;8.584;2024-03-07T01:59:30;2.81;87.22
66522;SHT31;53349;53.538;8.584;2024-03-07T02:01:56;2.75;87.44
66522;SHT31;53349;53.538;8.584;2024-03-07T02:04:22;2.88;87.16
66522;SHT31;53349;53.538;8.584;2024-03-07T02:06:47;2.91;87.17
66522;SHT31;53349;53.538;8.584;2024-03-07T02:09:12;2.92;87.29
66522;SHT31;53349;53.538;8.584;2024-03-07T02:11:38;2.95;87.38
66522;SHT31;53349;53.538;8.584;2024-03-07T02:14:03;2.99;87.40
66522;SHT31;53349;53.538;8.584;2024-03-07T02:16:29;3.09;87.31
66522;SHT31;53349;53.538;8.584;2024-03-07T02:18:54;3.06;87.45
66522;SHT31;53349;53.538;8.584;2024-03-07T02:21:19;3.10;87.66
66522;SHT31;53349;53.538;8.584;2024-03-07T02:23:45;3.24;87.25
66522;SHT31;53349;53.538;8.584;2024-03-07T02:26:10;3.26;87.19
66522;SHT31;53349;53.538;8.584;2024-03-07T02:28:35;3.20;87.42
66522;SHT31;53349;53.538;8.584;2024-03-07T02:31:01;3.27;87.51
66522;SHT31;53349;53.538;8.584;2024-03-07T02:33:26;3.30;87.39
66522;SHT31;53349;53.538;8.584;2024-03-07T02:35:52;3.31;87.27
66522;SHT31;53349;53.538;8.584;2024-03-07T02:38:18;3.33;87.19
66522;SHT31;53349;53.538;8.584;2024-03-07T02:40:43;3.28;87.30
66522;SHT31;53349;53.538;8.584;2024-03-07T02:43:08;3.31;87.71
66522;SHT31;53349;53.538;8.584;2024-03-07T02:45:34;3.38;87.39
66522;SHT31;53349;53.538;8.584;2024-03-07T02:47:59;3.41;87.13
66522;SHT31;53349;53.538;8.584;2024-03-07T02:50:25;3.47;86.93
66522;SHT31;53349;53.538;8.584;2024-03-07T02:52:50;3.48;86.81
66522;SHT31;53349;53.538;8.584;2024-03-07T02:55:15;3.56;86.63
66522;SHT31;53349;53.538;8.584;2024-03-07T02:57:41;3.41;86.78
66522;SHT31;53349;53.538;8.584;2024-03-07T03:00:07;3.46;86.91
66522;SHT31;53349;53.538;8.584;2024-03-07T03:02:32;3.57;86.82
66522;SHT31;53349;53.538;8.584;2024-03-07T03:04:57;3.58;86.58
66522;SHT31;53349;53.538;8.584;2024-03-07T03:07:23;3.51;87.08
66522;SHT31;53349;53.538;8.584;2024-03-07T03:09:48;3.61;86.43
66522;SHT31;53349;53.538;8.584;2024-03-07T03:12:13;3.57;86.73
66522;SHT31;53349;53.538;8.584;2024-03-07T03:14:39;3.60;86.72
66522;SHT31;53349;53.538;8.584;2024-03-07T03:17:04;3.63;86.87
66522;SHT31;53349;53.538;8.584;2024-03-07T03:19:30;3.63;86.73
66522;SHT31;53349;53.538;8.584;2024-03-07T03:21:55;3.67;86.70
66522;SHT31;53349;53.538;8.584;2024-03-07T03:24:20;3.68;86.51
66522;SHT31;53349;53.538;8.584;2024-03-07T03:26:46;3.71;86.33
66522;SHT31;53349;53.538;8.584;2024-03-07T03:29:11;3.70;86.29
66522;SHT31;53349;53.538;8.584;2024-03-07T03:31:37;3.67;86.49
66522;SHT31;53349;53.538;8.584;2024-03-07T03:34:02;3.71;86.29
66522;SHT31;53349;53.538;8.584;2024-03-07T03:36:27;3.65;86.62
66522;SHT31;53349;53.538;8.584;2024-03-07T03:38:53;3.70;86.30
66522;SHT31;53349;53.538;8.584;2024-03-07T03:41:18;3.58;86.79
66522;SHT31;53349;53.538;8.584;2024-03-07T03:43:44;3.56;86.78
66522;SHT31;53349;53.538;8.584;2024-03-07T03:46:10;3.58;86.92
66522;SHT31;53349;53.538;8.584;2024-03-07T03:48:35;3.67;86.61
66522;SHT31;53349;53.538;8.584;2024-03-07T03:51:01;3.56;86.96
66522;SHT31;53349;53.538;8.584;2024-03-07T03:53:26;3.46;87.15
66522;SHT31;53349;53.538;8.584;2024-03-07T03:55:51;3.58;86.83
66522;SHT31;53349;53.538;8.584;2024-03-07T03:58:17;3.68;86.21
66522;SHT31;53349;53.538;8.584;2024-03-07T04:00:42;3.70;86.25
66522;SHT31;53349;53.538;8.584;2024-03-07T04:03:07;3.57;86.70
66522;SHT31;53349;53.538;8.584;2024-03-07T04:05:33;3.61;86.92
66522;SHT31;53349;53.538;8.584;2024-03-07T04:07:58;3.64;86.69
66522;SHT31;53349;53.538;8.584;2024-03-07T04:10:23;3.64;87.04
66522;SHT31;53349;53.538;8.584;2024-03-07T04:12:49;3.61;87.17
66522;SHT31;53349;53.538;8.584;2024-03-07T04:15:15;3.63;87.00
66522;SHT31;53349;53.538;8.584;2024-03-07T04:17:40;3.71;87.03
66522;SHT31;53349;53.538;8.584;2024-03-07T04:20:06;3.79;86.78
66522;SHT31;53349;53.538;8.584;2024-03-07T04:22:33;3.82;86.72
66522;SHT31;53349;53.538;8.584;2024-03-07T04:24:59;3.79;86.76
66522;SHT31;53349;53.538;8.584;2024-03-07T04:27:24;3.71;87.32
66522;SHT31;53349;53.538;8.584;2024-03-07T04:29:50;3.77;86.85
66522;SHT31;53349;53.538;8.584;2024-03-07T04:32:15;3.77;87.10
66522;SHT31;53349;53.538;8.584;2024-03-07T04:34:40;3.61;87.40
66522;SHT31;53349;53.538;8.584;2024-03-07T04:37:06;3.64;87.54
66522;SHT31;53349;53.538;8.584;2024-03-07T04:39:31;3.74;87.49
66522;SHT31;53349;53.538;8.584;2024-03-07T04:41:57;3.75;87.24
66522;SHT31;53349;53.538;8.584;2024-03-07T04:44:22;3.73;87.32
66522;SHT31;53349;53.538;8.584;2024-03-07T04:46:48;3.78;87.30
66522;SHT31;53349;53.538;8.584;2024-03-07T04:49:14;3.92;86.87
66522;SHT31;53349;53.538;8.584;2024-03-07T04:51:39;3.77;87.44
66522;SHT31;53349;53.538;8.584;2024-03-07T04:54:04;3.78;87.54
66522;SHT31;53349;53.538;8.584;2024-03-07T04:56:30;3.91;87.44
66522;SHT31;53349;53.538;8.584;2024-03-07T04:58:55;3.89;87.15
66522;SHT31;53349;53.538;8.584;2024-03-07T05:01:20;4.01;86.82
66522;SHT31;53349;53.538;8.584;2024-03-07T05:03:46;3.88;86.97
66522;SHT31;53349;53.538;8.584;2024-03-07T05:06:12;3.89;87.19
66522;SHT31;53349;53.538;8.584;2024-03-07T05:08:38;3.88;87.10
66522;SHT31;53349;53.538;8.584;2024-03-07T05:11:04;3.99;86.77
66522;SHT31;53349;53.538;8.584;2024-03-07T05:13:29;3.89;86.91
66522;SHT31;53349;53.538;8.584;2024-03-07T05:15:55;3.99;86.66
66522;SHT31;53349;53.538;8.584;2024-03-07T05:18:20;3.91;86.83
66522;SHT31;53349;53.538;8.584;2024-03-07T05:20:45;4.01;86.63
66522;SHT31;53349;53.538;8.584;2024-03-07T05:23:11;4.09;86.00
66522;SHT31;53349;53.538;8.584;2024-03-07T05:25:36;4.17;85.65
66522;SHT31;53349;53.538;8.584;2024-03-07T05:28:02;4.17;85.76
66522;SHT31;53349;53.538;8.584;2024-03-07T05:30:27;4.13;85.67
66522;SHT31;53349;53.538;8.584;2024-03-07T05:32:52;4.15;85.58
66522;SHT31;53349;53.538;8.584;2024-03-07T05:35:18;4.12;85.45
66522;SHT31;53349;53.538;8.584;2024-03-07T05:37:43;4.22;85.36
66522;SHT31;53349;53.538;8.584;2024-03-07T05:40:09;4.25;85.11
66522;SHT31;53349;53.538;8.584;2024-03-07T05:42:34;4.29;85.09
66522;SHT31;53349;53.538;8.584;2024-03-07T05:44:59;4.26;84.84
66522;SHT31;53349;53.538;8.584;2024-03-07T05:47:25;4.33;84.51
66522;SHT31;53349;53.538;8.584;2024-03-07T05:49:50;4.28;84.76
66522;SHT31;53349;53.538;8.584;2024-03-07T05:52:15;4.37;84.69
66522;SHT31;53349;53.538;8.584;2024-03-07T05:54:41;4.28;84.86
66522;SHT31;53349;53.538;8.584;2024-03-07T05:57:06;4.39;84.64
66522;SHT31;53349;53.538;8.584;2024-03-07T05:59:32;4.28;85.01
66522;SHT31;53349;53.538;8.584;2024-03-07T06:01:57;4.32;85.09
66522;SHT31;53349;53.538;8.584;2024-03-07T06:04:23;4.40;85.00
66522;SHT31;53349;53.538;8.584;2024-03-07T06:06:48;4.42;84.90
66522;SHT31;53349;53.538;8.584;2024-03-07T06:09:14;4.37;84.86
66522;SHT31;53349;53.538;8.584;2024-03-07T06:11:40;4.46;84.73
66522;SHT31;53349;53.538;8.584;2024-03-07T06:14:06;4.43;84.62
66522;SHT31;53349;53.538;8.584;2024-03-07T06:16:37;4.39;84.82
66522;SHT31;53349;53.538;8.584;2024-03-07T06:19:03;4.43;84.68
66522;SHT31;53349;53.538;8.584;2024-03-07T06:21:30;4.42;84.79
66522;SHT31;53349;53.538;8.584;2024-03-07T06:23:55;4.46;84.80
66522;SHT31;53349;53.538;8.584;2024-03-07T06:26:20;4.49;84.59
66522;SHT31;53349;53.538;8.584;2024-03-07T06:28:46;4.50;84.47
66522;SHT31;53349;53.538;8.584;2024-03-07T06:31:11;4.57;84.41
66522;SHT31;53349;53.538;8.584;2024-03-07T06:33:36;4.52;84.53
66522;SHT31;53349;53.538;8.584;2024-03-07T06:36:02;4.53;84.73
66522;SHT31;53349;53.538;8.584;2024-03-07T06:38:27;4.64;84.47
66522;SHT31;53349;53.538;8.584;2024-03-07T06:40:52;4.60;84.36
66522;SHT31;53349;53.538;8.584;2024-03-07T06:43:18;4.77;84.08
66522;SHT31;53349;53.538;8.584;2024-03-07T06:45:43;4.67;84.45
66522;SHT31;53349;53.538;8.584;2024-03-07T06:48:09;4.64;84.63
66522;SHT31;53349;53.538;8.584;2024-03-07T06:50:35;4.64;84.83
66522;SHT31;53349;53.538;8.584;2024-03-07T06:53:01;4.70;84.91
66522;SHT31;53349;53.538;8.584;2024-03-07T06:55:26;4.73;84.64
66522;SHT31;53349;53.538;8.584;2024-03-07T06:57:52;4.81;84.41
66522;SHT31;53349;53.538;8.584;2024-03-07T07:00:17;4.74;84.65
66522;SHT31;53349;53.538;8.584;2024-03-07T07:02:43;4.73;84.75
66522;SHT31;53349;53.538;8.584;2024-03-07T07:05:08;4.71;84.72
66522;SHT31;53349;53.538;8.584;2024-03-07T07:07:47;4.87;84.10
66522;SHT31;53349;53.538;8.584;2024-03-07T07:10:13;4.81;83.68
66522;SHT31;53349;53.538;8.584;2024-03-07T07:12:39;4.91;85.27
66522;SHT31;53349;53.538;8.584;2024-03-07T07:15:04;4.85;84.12
66522;SHT31;53349;53.538;8.584;2024-03-07T07:17:30;4.81;83.02
66522;SHT31;53349;53.538;8.584;2024-03-07T07:19:58;4.87;82.93
66522;SHT31;53349;53.538;8.584;2024-03-07T07:22:25;4.85;83.15
66522;SHT31;53349;53.538;8.584;2024-03-07T07:24:50;4.96;83.80
66522;SHT31;53349;53.538;8.584;2024-03-07T07:27:15;5.15;83.92
66522;SHT31;53349;53.538;8.584;2024-03-07T07:29:41;4.88;80.73
66522;SHT31;53349;53.538;8.584;2024-03-07T07:32:06;4.61;80.45
66522;SHT31;53349;53.538;8.584;2024-03-07T07:34:32;4.56;80.42
66522;SHT31;53349;53.538;8.584;2024-03-07T07:36:57;4.42;79.90
66522;SHT31;53349;53.538;8.584;2024-03-07T07:39:22;4.40;79.35
66522;SHT31;53349;53.538;8.584;2024-03-07T07:41:48;4.28;78.70
66522;SHT31;53349;53.538;8.584;2024-03-07T07:44:13;4.28;78.49
66522;SHT31;53349;53.538;8.584;2024-03-07T07:46:38;4.28;78.39
66522;SHT31;53349;53.538;8.584;2024-03-07T07:49:04;4.43;78.07
66522;SHT31;53349;53.538;8.584;2024-03-07T07:51:29;4.43;77.96
66522;SHT31;53349;53.538;8.584;2024-03-07T07:53:54;4.37;78.15
66522;SHT31;53349;53.538;8.584;2024-03-07T07:56:20;4.37;77.75
66522;SHT31;53349;53.538;8.584;2024-03-07T07:58:45;4.29;77.62
66522;SHT31;53349;53.538;8.584;2024-03-07T08:01:10;4.40;77.15
66522;SHT31;53349;53.538;8.584;2024-03-07T08:03:36;4.42;77.02
66522;SHT31;53349;53.538;8.584;2024-03-07T08:06:01;4.65;76.07
66522;SHT31;53349;53.538;8.584;2024-03-07T08:08:26;4.88;75.38
66522;SHT31;53349;53.538;8.584;2024-03-07T08:10:52;5.36;75.48
66522;SHT31;53349;53.538;8.584;2024-03-07T08:13:17;5.50;72.00
66522;SHT31;53349;53.538;8.584;2024-03-07T08:15:43;5.60;70.30
66522;SHT31;53349;53.538;8.584;2024-03-07T08:18:08;5.94;70.97
66522;SHT31;53349;53.538;8.584;2024-03-07T08:20:36;5.61;70.73
66522;SHT31;53349;53.538;8.584;2024-03-07T08:23:02;5.78;69.95
66522;SHT31;53349;53.538;8.584;2024-03-07T08:25:28;5.84;69.97
66522;SHT31;53349;53.538;8.584;2024-03-07T08:27:55;6.01;68.73
66522;SHT31;53349;53.538;8.584;2024-03-07T08:30:21;6.42;68.06
66522;SHT31;53349;53.538;8.584;2024-03-07T08:35:13;7.21;65.18
66522;SHT31;53349;53.538;8.584;2024-03-07T08:37:40;7.25;64.74
66522;SHT31;53349;53.538;8.584;2024-03-07T08:40:06;7.55;64.17
66522;SHT31;53349;53.538;8.584;2024-03-07T08:42:36;7.70;63.92
66522;SHT31;53349;53.538;8.584;2024-03-07T08:45:02;7.59;63.64
66522;SHT31;53349;53.538;8.584;2024-03-07T08:47:28;7.45;64.35
66522;SHT31;53349;53.538;8.584;2024-03-07T08:49:54;7.35;64.72
66522;SHT31;53349;53.538;8.584;2024-03-07T08:52:19;6.70;65.10
66522;SHT31;53349;53.538;8.584;2024-03-07T08:54:45;6.42;66.16
66522;SHT31;53349;53.538;8.584;2024-03-07T08:57:10;6.60;66.33
66522;SHT31;53349;53.538;8.584;2024-03-07T08:59:35;6.60;66.35
66522;SHT31;53349;53.538;8.584;2024-03-07T09:02:01;6.01;67.16
66522;SHT31;53349;53.538;8.584;2024-03-07T09:04:26;5.80;68.03
66522;SHT31;53349;53.538;8.584;2024-03-07T09:06:51;5.49;68.82
66522;SHT31;53349;53.538;8.584;2024-03-07T09:09:17;5.67;68.47
66522;SHT31;53349;53.538;8.584;2024-03-07T09:11:42;5.97;67.87
66522;SHT31;53349;53.538;8.584;2024-03-07T09:14:07;6.60;66.10
66522;SHT31;53349;53.538;8.584;2024-03-07T09:16:33;7.01;65.10
66522;SHT31;53349;53.538;8.584;2024-03-07T09:18:58;7.04;64.46
66522;SHT31;53349;53.538;8.584;2024-03-07T09:21:23;6.79;65.10
66522;SHT31;53349;53.538;8.584;2024-03-07T09:23:49;6.91;65.02
66522;SHT31;53349;53.538;8.584;2024-03-07T09:26:14;6.90;65.49
66522;SHT31;53349;53.538;8.584;2024-03-07T09:28:39;7.05;66.00
66522;SHT31;53349;53.538;8.584;2024-03-07T09:31:05;6.93;66.20
66522;SHT31;53349;53.538;8.584;2024-03-07T09:33:30;6.52;66.04
66522;SHT31;53349;53.538;8.584;2024-03-07T09:35:55;6.17;67.35
66522;SHT31;53349;53.538;8.584;2024-03-07T09:38:21;6.05;68.12
66522;SHT31;53349;53.538;8.584;2024-03-07T09:40:47;5.94;68.27
66522;SHT31;53349;53.538;8.584;2024-03-07T09:43:12;6.04;68.18
66522;SHT31;53349;53.538;8.584;2024-03-07T09:45:38;6.02;67.98
66522;SHT31;53349;53.538;8.584;2024-03-07T09:48:05;6.22;68.07
66522;SHT31;53349;53.538;8.584;2024-03-07T09:50:31;5.94;68.20
66522;SHT31;53349;53.538;8.584;2024-03-07T09:52:58;5.83;68.49
66522;SHT31;53349;53.538;8.584;2024-03-07T09:55:23;6.12;67.94
66522;SHT31;53349;53.538;8.584;2024-03-07T09:57:49;5.87;68.18
66522;SHT31;53349;53.538;8.584;2024-03-07T10:00:17;6.24;67.76
66522;SHT31;53349;53.538;8.584;2024-03-07T10:02:43;5.95;68.40
66522;SHT31;53349;53.538;8.584;2024-03-07T10:05:13;6.45;66.88
66522;SHT31;53349;53.538;8.584;2024-03-07T10:07:39;7.34;65.91
66522;SHT31;53349;53.538;8.584;2024-03-07T10:10:05;8.00;62.46
66522;SHT31;53349;53.538;8.584;2024-03-07T10:12:30;8.59;60.41
66522;SHT31;53349;53.538;8.584;2024-03-07T10:14:56;9.34;58.68
66522;SHT31;53349;53.538;8.584;2024-03-07T10:17:24;9.40;58.47
66522;SHT31;53349;53.538;8.584;2024-03-07T10:19:49;10.16;56.71
66522;SHT31;53349;53.538;8.584;2024-03-07T10:22:15;10.79;54.90
66522;SHT31;53349;53.538;8.584;2024-03-07T10:24:40;11.56;53.95
66522;SHT31;53349;53.538;8.584;2024-03-07T10:27:14;11.73;52.09
66522;SHT31;53349;53.538;8.584;2024-03-07T10:29:39;11.22;52.40
66522;SHT31;53349;53.538;8.584;2024-03-07T10:32:12;11.19;52.27
66522;SHT31;53349;53.538;8.584;2024-03-07T10:34:37;11.73;51.40
66522;SHT31;53349;53.538;8.584;2024-03-07T10:37:04;12.06;50.55
66522;SHT31;53349;53.538;8.584;2024-03-07T10:39:30;11.64;51.06
66522;SHT31;53349;53.538;8.584;2024-03-07T10:41:56;11.63;51.22
66522;SHT31;53349;53.538;8.584;2024-03-07T10:44:27;11.44;51.36
66522;SHT31;53349;53.538;8.584;2024-03-07T10:46:54;11.50;51.16
66522;SHT31;53349;53.538;8.584;2024-03-07T10:49:20;12.17;50.13
66522;SHT31;53349;53.538;8.584;2024-03-07T10:51:47;11.83;50.50
66522;SHT31;53349;53.538;8.584;2024-03-07T10:54:36;11.74;49.89
66522;SHT31;53349;53.538;8.584;2024-03-07T10:57:31;11.70;49.83
66522;SHT31;53349;53.538;8.584;2024-03-07T11:00:02;11.22;50.90
66522;SHT31;53349;53.538;8.584;2024-03-07T11:02:38;11.22;51.24
66522;SHT31;53349;53.538;8.584;2024-03-07T11:05:09;10.82;52.16
66522;SHT31;53349;53.538;8.584;2024-03-07T11:07:34;10.92;52.11
66522;SHT31;53349;53.538;8.584;2024-03-07T11:10:01;10.64;52.16
66522;SHT31;53349;53.538;8.584;2024-03-07T11:12:27;10.78;52.24
66522;SHT31;53349;53.538;8.584;2024-03-07T11:14:53;10.65;52.51
66522;SHT31;53349;53.538;8.584;2024-03-07T11:17:20;10.65;52.70
66522;SHT31;53349;53.538;8.584;2024-03-07T11:19:46;10.78;52.79
66522;SHT31;53349;53.538;8.584;2024-03-07T11:22:11;11.30;51.77
66522;SHT31;53349;53.538;8.584;2024-03-07T11:24:36;11.19;52.01
66522;SHT31;53349;53.538;8.584;2024-03-07T11:27:03;11.11;52.51
66522;SHT31;53349;53.538;8.584;2024-03-07T11:29:50;11.53;51.82
66522;SHT31;53349;53.538;8.584;2024-03-07T11:32:15;11.29;51.71
66522;SHT31;53349;53.538;8.584;2024-03-07T11:34:45;11.09;51.95
66522;SHT31;53349;53.538;8.584;2024-03-07T11:37:10;11.42;51.32
66522;SHT31;53349;53.538;8.584;2024-03-07T11:42:34;11.12;52.22
66522;SHT31;53349;53.538;8.584;2024-03-07T11:45:00;10.63;52.90
66522;SHT31;53349;53.538;8.584;2024-03-07T11:47:26;10.44;53.68
66522;SHT31;53349;53.538;8.584;2024-03-07T11:49:51;10.70;53.41
66522;SHT31;53349;53.538;8.584;2024-03-07T11:52:17;10.46;53.24
66522;SHT31;53349;53.538;8.584;2024-03-07T11:54:43;10.26;54.19
66522;SHT31;53349;53.538;8.584;2024-03-07T11:57:08;10.26;54.25
66522;SHT31;53349;53.538;8.584;2024-03-07T11:59:34;10.20;54.50
66522;SHT31;53349;53.538;8.584;2024-03-07T12:01:59;9.78;55.46
66522;SHT31;53349;53.538;8.584;2024-03-07T12:04:25;9.44;55.71
66522;SHT31;53349;53.538;8.584;2024-03-07T12:06:51;9.51;55.88
66522;SHT31;53349;53.538;8.584;2024-03-07T12:09:17;9.62;56.06
66522;SHT31;53349;53.538;8.584;2024-03-07T12:11:42;9.26;56.52
66522;SHT31;53349;53.538;8.584;2024-03-07T12:14:08;9.50;56.19
66522;SHT31;53349;53.538;8.584;2024-03-07T12:16:33;9.33;56.04
66522;SHT31;53349;53.538;8.584;2024-03-07T12:18:58;9.40;55.74
66522;SHT31;53349;53.538;8.584;2024-03-07T12:21:24;9.30;56.18
66522;SHT31;53349;53.538;8.584;2024-03-07T12:23:50;9.16;56.51
66522;SHT31;53349;53.538;8.584;2024-03-07T12:26:21;9.07;56.60
66522;SHT31;53349;53.538;8.584;2024-03-07T12:28:49;9.12;57.00
66522;SHT31;53349;53.538;8.584;2024-03-07T12:31:16;8.93;56.79
66522;SHT31;53349;53.538;8.584;2024-03-07T12:33:42;9.30;56.39
66522;SHT31;53349;53.538;8.584;2024-03-07T12:36:09;9.14;56.96
66522;SHT31;53349;53.538;8.584;2024-03-07T12:38:37;9.07;57.11
66522;SHT31;53349;53.538;8.584;2024-03-07T12:41:09;8.72;58.25
66522;SHT31;53349;53.538;8.584;2024-03-07T12:43:34;8.97;58.03
66522;SHT31;53349;53.538;8.584;2024-03-07T12:46:00;8.93;58.45
66522;SHT31;53349;53.538;8.584;2024-03-07T12:48:25;8.85;58.36
66522;SHT31;53349;53.538;8.584;2024-03-07T12:50:52;8.92;58.64
66522;SHT31;53349;53.538;8.584;2024-03-07T12:53:17;8.82;58.65
66522;SHT31;53349;53.538;8.584;2024-03-07T12:55:42;8.85;58.20
66522;SHT31;53349;53.538;8.584;2024-03-07T12:58:09;8.94;58.20
66522;SHT31;53349;53.538;8.584;2024-03-07T13:00:34;8.80;58.16
66522;SHT31;53349;53.538;8.584;2024-03-07T13:03:00;8.40;58.66
66522;SHT31;53349;53.538;8.584;2024-03-07T13:05:25;8.40;58.85
66522;SHT31;53349;53.538;8.584;2024-03-07T13:07:51;8.40;58.92
66522;SHT31;53349;53.538;8.584;2024-03-07T13:10:16;8.44;58.80
66522;SHT31;53349;53.538;8.584;2024-03-07T13:12:42;8.31;58.56
66522;SHT31;53349;53.538;8.584;2024-03-07T13:15:09;8.18;58.65
66522;SHT31;53349;53.538;8.584;2024-03-07T13:17:34;8.28;58.76
66522;SHT31;53349;53.538;8.584;2024-03-07T13:20:00;8.28;59.16
66522;SHT31;53349;53.538;8.584;2024-03-07T13:22:25;8.21;59.36
66522;SHT31;53349;53.538;8.584;2024-03-07T13:24:50;8.15;59.08
66522;SHT31;53349;53.538;8.584;2024-03-07T13:27:16;8.17;58.82
66522;SHT31;53349;53.538;8.584;2024-03-07T13:29:41;8.33;58.47
66522;SHT31;53349;53.538;8.584;2024-03-07T13:32:06;7.96;59.15
66522;SHT31;53349;53.538;8.584;2024-03-07T13:34:32;8.08;59.26
66522;SHT31;53349;53.538;8.584;2024-03-07T13:36:57;8.15;58.74
66522;SHT31;53349;53.538;8.584;2024-03-07T13:39:22;8.07;58.90
66522;SHT31;53349;53.538;8.584;2024-03-07T13:41:48;7.94;58.43
66522;SHT31;53349;53.538;8.584;2024-03-07T13:44:14;7.96;58.93
66522;SHT31;53349;53.538;8.584;2024-03-07T13:46:40;7.91;59.30
66522;SHT31;53349;53.538;8.584;2024-03-07T13:49:05;8.03;58.68
66522;SHT31;53349;53.538;8.584;2024-03-07T13:51:31;8.04;58.35
66522;SHT31;53349;53.538;8.584;2024-03-07T13:53:56;7.77;58.15
66522;SHT31;53349;53.538;8.584;2024-03-07T13:57:28;7.69;58.28
66522;SHT31;53349;53.538;8.584;2024-03-07T14:21:53;7.67;60.44
66522;SHT31;53349;53.538;8.584;2024-03-07T14:30:22;7.51;64.04
66522;SHT31;53349;53.538;8.584;2024-03-07T14:32:50;7.58;64.24
66522;SHT31;53349;53.538;8.584;2024-03-07T14:38:02;7.49;64.66
66522;SHT31;53349;53.538;8.584;2024-03-07T14:40:30;7.54;64.58
66522;SHT31;53349;53.538;8.584;2024-03-07T14:42:58;7.21;65.57
66522;SHT31;53349;53.538;8.584;2024-03-07T14:45:30;7.28;65.44
66522;SHT31;53349;53.538;8.584;2024-03-07T14:47:57;7.31;65.62
66522;SHT31;53349;53.538;8.584;2024-03-07T14:50:24;7.19;66.06
66522;SHT31;53349;53.538;8.584;2024-03-07T14:52:51;7.25;66.08
66522;SHT31;53349;53.538;8.584;2024-03-07T14:55:17;7.29;67.15
66522;SHT31;53349;53.538;8.584;2024-03-07T14:57:43;7.54;66.28
66522;SHT31;53349;53.538;8.584;2024-03-07T15:00:08;7.61;65.61
66522;SHT31;53349;53.538;8.584;2024-03-07T15:02:34;7.52;65.39
66522;SHT31;53349;53.538;8.584;2024-03-07T15:04:59;7.39;64.89
66522;SHT31;53349;53.538;8.584;2024-03-07T15:07:25;7.19;64.96
66522;SHT31;53349;53.538;8.584;2024-03-07T15:09:50;7.08;65.79
66522;SHT31;53349;53.538;8.584;2024-03-07T15:12:15;7.15;66.30
66522;SHT31;53349;53.538;8.584;2024-03-07T15:14:41;7.24;65.79
66522;SHT31;53349;53.538;8.584;2024-03-07T15:17:06;7.15;65.98
66522;SHT31;53349;53.538;8.584;2024-03-07T15:19:32;7.09;65.80
66522;SHT31;53349;53.538;8.584;2024-03-07T15:21:57;7.04;65.30
66522;SHT31;53349;53.538;8.584;2024-03-07T15:24:22;6.98;65.99
66522;SHT31;53349;53.538;8.584;2024-03-07T15:26:48;6.70;67.17
66522;SHT31;53349;53.538;8.584;2024-03-07T15:29:13;6.80;67.19
66522;SHT31;53349;53.538;8.584;2024-03-07T15:31:38;6.67;67.76
66522;SHT31;53349;53.538;8.584;2024-03-07T15:34:04;6.57;68.23
66522;SHT31;53349;53.538;8.584;2024-03-07T15:36:29;6.53;68.60
66522;SHT31;53349;53.538;8.584;2024-03-07T15:38:54;6.54;68.69
66522;SHT31;53349;53.538;8.584;2024-03-07T15:41:20;6.59;68.72
66522;SHT31;53349;53.538;8.584;2024-03-07T15:43:45;6.53;69.21
66522;SHT31;53349;53.538;8.584;2024-03-07T15:46:11;6.48;69.08
66522;SHT31;53349;53.538;8.584;2024-03-07T15:48:37;6.42;69.70
66522;SHT31;53349;53.538;8.584;2024-03-07T15:51:03;6.28;70.33
66522;SHT31;53349;53.538;8.584;2024-03-07T15:53:28;6.33;70.35
66522;SHT31;53349;53.538;8.584;2024-03-07T15:55:53;6.24;70.18
66522;SHT31;53349;53.538;8.584;2024-03-07T15:58:19;6.33;70.09
66522;SHT31;53349;53.538;8.584;2024-03-07T16:00:44;6.45;69.74
66522;SHT31;53349;53.538;8.584;2024-03-07T16:03:09;6.30;70.10
66522;SHT31;53349;53.538;8.584;2024-03-07T16:05:36;6.38;69.83
66522;SHT31;53349;53.538;8.584;2024-03-07T16:08:04;6.43;69.88
66522;SHT31;53349;53.538;8.584;2024-03-07T16:10:30;6.53;69.25
66522;SHT31;53349;53.538;8.584;2024-03-07T16:12:57;6.36;69.65